Time;durP1;ratioP1;P1;durP2;ratioP2;P2;SDS_P1;SDS_P2;PMS_P1;PMS_P2;Temp;Humidity;BMP_temperature;BMP_pressure;BME280_temperature;BME280_humidity;BME280_pressure;Samples;Min_cycle;Max_cycle;Signal;HPM_P1;HPM_P2
2023/05/08 00:00:28;;;;;;;6.23;5.10;;;8.80;99.90;;;;;;5010753;28;20183;-87
2023/05/08 00:02:55;;;;;;;5.80;4.80;;;8.80;99.90;;;;;;5023757;28;20204;-86
2023/05/08 00:05:20;;;;;;;10.73;6.00;;;8.70;99.90;;;;;;5011100;28;20179;-87
2023/05/08 00:07:47;;;;;;;5.88;5.28;;;8.70;99.90;;;;;;5015529;28;20524;-90
2023/05/08 00:10:13;;;;;;;5.83;5.20;;;8.70;99.90;;;;;;5031843;28;20175;-88
2023/05/08 00:12:38;;;;;;;5.57;4.97;;;8.60;99.90;;;;;;5014792;28;20186;-85
2023/05/08 00:15:05;;;;;;;5.73;5.13;;;8.60;99.90;;;;;;5014907;28;20175;-90
2023/05/08 00:17:30;;;;;;;6.70;4.80;;;8.60;99.90;;;;;;5014999;28;20266;-90
2023/05/08 00:19:56;;;;;;;5.63;5.00;;;8.60;99.90;;;;;;5030493;28;20575;-90
2023/05/08 00:22:26;;;;;;;5.10;4.60;;;8.50;99.90;;;;;;5014375;28;20546;-90
2023/05/08 00:24:52;;;;;;;5.10;4.60;;;8.50;99.90;;;;;;5014493;28;20183;-90
2023/05/08 00:27:17;;;;;;;5.43;4.70;;;8.50;99.90;;;;;;5014788;28;20510;-90
2023/05/08 00:29:43;;;;;;;5.53;4.80;;;8.40;99.90;;;;;;5014956;28;20179;-88
2023/05/08 00:32:10;;;;;;;6.60;4.97;;;8.40;99.90;;;;;;5013492;28;20222;-87
2023/05/08 00:34:35;;;;;;;5.43;4.90;;;8.40;99.90;;;;;;5013725;28;20649;-88
2023/05/08 00:37:02;;;;;;;4.63;4.23;;;8.30;99.90;;;;;;5013665;28;20198;-87
2023/05/08 00:39:28;;;;;;;6.27;4.70;;;8.40;99.90;;;;;;5015067;28;20274;-86
2023/05/08 00:41:55;;;;;;;5.40;4.90;;;8.30;99.90;;;;;;5014460;28;20734;-86
2023/05/08 00:44:20;;;;;;;9.37;4.83;;;8.30;99.90;;;;;;5012879;28;20182;-87
2023/05/08 00:46:46;;;;;;;5.03;4.53;;;8.30;99.90;;;;;;5013829;28;20183;-86
2023/05/08 00:49:13;;;;;;;5.07;4.67;;;8.20;99.90;;;;;;5013416;28;20222;-87
2023/05/08 00:51:45;;;;;;;5.27;4.77;;;8.20;99.90;;;;;;5014789;28;20228;-87
2023/05/08 00:54:11;;;;;;;5.60;4.63;;;8.20;99.90;;;;;;5013639;28;20206;-86
2023/05/08 00:56:38;;;;;;;5.60;5.00;;;8.10;99.90;;;;;;5013841;28;20649;-86
2023/05/08 00:59:08;;;;;;;5.37;4.83;;;8.10;99.90;;;;;;5013439;28;20652;-85
2023/05/08 01:01:39;;;;;;;7.97;5.10;;;8.10;99.90;;;;;;5013460;28;20183;-85
2023/05/08 01:04:05;;;;;;;6.50;5.20;;;8.10;99.90;;;;;;5013581;28;20202;-89
2023/05/08 01:06:30;;;;;;;5.67;4.87;;;8.10;99.90;;;;;;5010296;28;20528;-87
2023/05/08 01:08:56;;;;;;;5.03;4.40;;;8.00;99.90;;;;;;5027387;28;20281;-86
2023/05/08 01:11:44;;;;;;;6.77;4.83;;;8.00;99.90;;;;;;5013104;28;20190;-87
2023/05/08 01:14:16;;;;;;;5.47;4.97;;;8.00;99.90;;;;;;5028844;28;20179;-88
2023/05/08 01:17:13;;;;;;;6.27;5.33;;;8.00;99.90;;;;;;5013431;28;20175;-87
2023/05/08 01:19:55;;;;;;;6.07;4.97;;;7.90;99.90;;;;;;5013083;28;20183;-89
2023/05/08 01:22:37;;;;;;;6.70;4.80;;;8.00;99.90;;;;;;5013171;28;20595;-85
2023/05/08 01:25:05;;;;;;;6.27;4.77;;;7.90;99.90;;;;;;5012560;28;20325;-86
2023/05/08 01:27:57;;;;;;;6.47;5.13;;;7.80;99.90;;;;;;5013403;28;20656;-86
2023/05/08 01:30:43;;;;;;;5.50;5.00;;;7.80;99.90;;;;;;5007074;28;20272;-86
2023/05/08 01:33:50;;;;;;;6.37;4.63;;;7.70;99.90;;;;;;5012882;28;20198;-86
2023/05/08 01:36:49;;;;;;;6.13;5.33;;;7.70;99.90;;;;;;4987123;28;20225;-86
2023/05/08 01:39:26;;;;;;;5.27;4.77;;;7.70;99.90;;;;;;5014435;28;20168;-86
2023/05/08 01:42:23;;;;;;;5.47;4.97;;;7.70;99.90;;;;;;5003220;28;20230;-87
2023/05/08 01:44:55;;;;;;;5.73;5.23;;;7.60;99.90;;;;;;4993731;28;20192;-86
2023/05/08 01:47:25;;;;;;;6.00;5.37;;;7.60;99.90;;;;;;5012895;28;20175;-86
2023/05/08 01:50:07;;;;;;;5.70;4.87;;;7.60;99.90;;;;;;5013201;28;20187;-87
2023/05/08 01:52:47;;;;;;;7.27;5.27;;;7.60;99.90;;;;;;5029295;28;20186;-88
2023/05/08 01:55:34;;;;;;;5.27;4.70;;;7.60;99.90;;;;;;5010190;28;20193;-88
2023/05/08 01:58:02;;;;;;;8.40;5.40;;;7.60;99.90;;;;;;5010357;28;20286;-89
2023/05/08 02:00:28;;;;;;;6.70;5.57;;;7.50;99.90;;;;;;4998688;28;20274;-88
2023/05/08 02:02:56;;;;;;;5.67;4.93;;;7.50;99.90;;;;;;4996296;28;20311;-87
2023/05/08 02:05:23;;;;;;;8.00;5.43;;;7.50;99.90;;;;;;5020899;28;20182;-87
2023/05/08 02:07:50;;;;;;;5.47;4.97;;;7.50;99.90;;;;;;5016261;28;20202;-88
2023/05/08 02:10:17;;;;;;;6.13;5.20;;;7.50;99.90;;;;;;5016774;28;20175;-88
2023/05/08 02:12:44;;;;;;;6.10;5.50;;;7.40;99.90;;;;;;5018383;28;20175;-86
2023/05/08 02:15:12;;;;;;;5.47;4.90;;;7.40;99.90;;;;;;5015102;28;20223;-88
2023/05/08 02:17:39;;;;;;;5.63;5.03;;;7.30;99.90;;;;;;5016855;28;20183;-86
2023/05/08 02:20:06;;;;;;;5.67;5.10;;;7.40;99.90;;;;;;5016812;28;20614;-86
2023/05/08 02:22:33;;;;;;;5.73;5.03;;;7.40;99.90;;;;;;5016421;28;20203;-87
2023/05/08 02:25:00;;;;;;;7.10;5.23;;;7.40;99.90;;;;;;5013576;28;20180;-88
2023/05/08 02:27:27;;;;;;;6.90;5.30;;;7.40;99.90;;;;;;5014831;28;20180;-88
2023/05/08 02:29:55;;;;;;;7.20;5.47;;;7.30;99.90;;;;;;5016487;28;20219;-90
2023/05/08 02:32:24;;;;;;;7.13;5.30;;;7.30;99.90;;;;;;5028422;28;20281;-86
2023/05/08 02:34:51;;;;;;;6.17;4.97;;;7.30;99.90;;;;;;5018000;28;20179;-89
2023/05/08 02:37:20;;;;;;;6.50;5.20;;;7.20;99.90;;;;;;5017850;28;20645;-90
2023/05/08 02:39:47;;;;;;;8.30;5.27;;;7.20;99.90;;;;;;5015477;28;20183;-90
2023/05/08 02:42:13;;;;;;;5.97;5.33;;;7.20;99.90;;;;;;5016094;28;20284;-88
2023/05/08 02:44:39;;;;;;;6.43;5.77;;;7.20;99.90;;;;;;5017466;28;20191;-88
2023/05/08 02:47:20;;;;;;;6.73;5.67;;;7.20;99.90;;;;;;5016278;28;20186;-88
2023/05/08 02:49:52;;;;;;;6.33;5.50;;;7.10;99.90;;;;;;5016281;28;20175;-88
2023/05/08 02:52:29;;;;;;;5.80;5.20;;;7.10;99.90;;;;;;5015830;28;20190;-88
2023/05/08 02:55:36;;;;;;;6.83;5.70;;;7.00;99.90;;;;;;5016109;28;20480;-85
2023/05/08 02:58:22;;;;;;;6.10;5.20;;;7.00;99.90;;;;;;5016215;28;20185;-89
2023/05/08 03:00:58;;;;;;;7.83;5.40;;;7.00;99.90;;;;;;5016117;28;20199;-91
2023/05/08 03:03:38;;;;;;;9.33;6.60;;;7.00;99.90;;;;;;5003137;28;20207;-89
2023/05/08 03:06:10;;;;;;;6.40;5.23;;;7.00;99.90;;;;;;5016529;28;20179;-88
2023/05/08 03:08:38;;;;;;;6.27;5.60;;;6.90;99.90;;;;;;5016499;28;20171;-89
2023/05/08 03:11:13;;;;;;;6.10;5.50;;;6.90;99.90;;;;;;5015777;28;20207;-89
2023/05/08 03:13:47;;;;;;;7.13;5.80;;;6.90;99.90;;;;;;5016214;28;20201;-90
2023/05/08 03:16:19;;;;;;;7.47;5.80;;;6.80;99.90;;;;;;5015802;28;20290;-89
2023/05/08 03:18:53;;;;;;;6.00;5.40;;;6.80;99.90;;;;;;5015887;28;20167;-90
2023/05/08 03:21:23;;;;;;;6.07;5.47;;;6.80;99.90;;;;;;5015816;28;20183;-87
2023/05/08 03:23:51;;;;;;;6.23;5.43;;;6.80;99.90;;;;;;5015420;28;20669;-87
2023/05/08 03:26:21;;;;;;;7.03;5.30;;;6.80;99.90;;;;;;5014205;28;20179;-90
2023/05/08 03:28:51;;;;;;;6.77;5.80;;;6.80;99.90;;;;;;5015860;28;20179;-88
2023/05/08 03:31:20;;;;;;;6.10;5.07;;;6.70;99.90;;;;;;5015195;28;20606;-87
2023/05/08 03:33:52;;;;;;;6.20;5.60;;;6.80;99.90;;;;;;5015291;28;20564;-86
2023/05/08 03:36:18;;;;;;;6.60;6.00;;;6.80;99.90;;;;;;5014820;28;20210;-87
2023/05/08 03:38:45;;;;;;;6.50;5.70;;;6.70;99.90;;;;;;5015620;28;20182;-89
2023/05/08 03:41:11;;;;;;;6.53;5.60;;;6.80;99.90;;;;;;5014883;28;20194;-88
2023/05/08 03:43:46;;;;;;;7.00;5.67;;;6.70;99.90;;;;;;5015331;28;20207;-87
2023/05/08 03:46:12;;;;;;;7.03;6.33;;;6.70;99.90;;;;;;5013582;28;20654;-87
2023/05/08 03:48:40;;;;;;;10.67;5.87;;;6.70;99.90;;;;;;5015146;28;20211;-86
2023/05/08 03:51:05;;;;;;;6.60;5.80;;;6.80;99.90;;;;;;5011192;28;20508;-88
2023/05/08 03:53:33;;;;;;;7.20;5.90;;;6.70;99.90;;;;;;5011728;28;20187;-85
2023/05/08 03:55:59;;;;;;;6.80;6.10;;;6.70;99.90;;;;;;5018552;28;20989;-87
2023/05/08 03:58:49;;;;;;;6.90;6.13;;;6.70;99.90;;;;;;5016490;28;20178;-89
2023/05/08 04:01:38;;;;;;;7.10;6.10;;;6.70;99.90;;;;;;5010820;28;20183;-89
2023/05/08 04:04:17;;;;;;;7.37;6.07;;;6.70;99.90;;;;;;5014719;28;20210;-88
2023/05/08 04:06:49;;;;;;;7.97;5.53;;;6.70;99.90;;;;;;5014165;28;20187;-87
2023/05/08 04:09:38;;;;;;;9.23;6.00;;;6.70;99.90;;;;;;5015061;28;20163;-88
2023/05/08 04:12:39;;;;;;;7.37;6.00;;;6.70;99.90;;;;;;5015114;28;20270;-87
2023/05/08 04:15:19;;;;;;;6.63;5.93;;;6.70;99.90;;;;;;4983930;28;20661;-88
2023/05/08 04:17:55;;;;;;;6.80;6.00;;;6.70;99.90;;;;;;5011108;28;20638;-90
2023/05/08 04:20:25;;;;;;;7.47;5.87;;;6.70;99.90;;;;;;5030895;28;20205;-88
2023/05/08 04:22:53;;;;;;;6.73;6.03;;;6.80;99.90;;;;;;5014454;28;20528;-88
2023/05/08 04:25:22;;;;;;;6.73;5.87;;;6.80;99.90;;;;;;5013542;28;20179;-87
2023/05/08 04:27:52;;;;;;;7.27;5.57;;;6.80;99.90;;;;;;5013581;28;20249;-86
2023/05/08 04:30:17;;;;;;;6.97;6.10;;;6.90;99.90;;;;;;5014673;28;20223;-87
2023/05/08 04:32:44;;;;;;;8.53;6.20;;;6.90;99.90;;;;;;5014716;28;20513;-87
2023/05/08 04:35:13;;;;;;;8.77;6.07;;;6.90;99.90;;;;;;5013110;28;20322;-88
2023/05/08 04:37:41;;;;;;;7.00;5.40;;;6.90;99.90;;;;;;5013906;28;20191;-87
2023/05/08 04:40:08;;;;;;;6.60;5.90;;;7.00;99.90;;;;;;5014394;28;20183;-89
2023/05/08 04:42:35;;;;;;;5.87;5.27;;;7.00;99.90;;;;;;5013142;28;20234;-88
2023/05/08 04:45:02;;;;;;;6.47;5.73;;;7.10;99.90;;;;;;5015470;28;20174;-88
2023/05/08 04:47:28;;;;;;;6.73;5.87;;;7.20;99.90;;;;;;5013319;28;20265;-86
2023/05/08 04:49:53;;;;;;;5.73;5.23;;;7.40;99.90;;;;;;5014257;28;20224;-86
2023/05/08 04:52:19;;;;;;;5.93;5.13;;;7.40;99.90;;;;;;5010073;28;20183;-87
2023/05/08 04:54:53;;;;;;;8.13;5.50;;;7.50;99.90;;;;;;5029011;28;20234;-88
2023/05/08 04:57:18;;;;;;;7.87;5.33;;;7.60;99.90;;;;;;5014239;28;20175;-85
2023/05/08 04:59:44;;;;;;;6.50;5.13;;;7.80;99.90;;;;;;5013849;28;20195;-89
2023/05/08 05:02:10;;;;;;;5.93;5.13;;;7.90;99.90;;;;;;5012743;28;20234;-86
2023/05/08 05:04:36;;;;;;;6.03;4.83;;;8.00;99.90;;;;;;5009156;28;20215;-88
2023/05/08 05:07:05;;;;;;;6.60;5.57;;;8.10;99.90;;;;;;5006072;28;20205;-89
2023/05/08 05:09:33;;;;;;;7.53;5.40;;;8.20;99.90;;;;;;5010498;28;20633;-90
2023/05/08 05:11:59;;;;;;;8.57;4.83;;;8.30;99.90;;;;;;5021629;28;20815;-87
2023/05/08 05:14:29;;;;;;;5.93;5.33;;;8.40;99.90;;;;;;4996712;28;20191;-89
2023/05/08 05:16:55;;;;;;;5.77;5.13;;;8.40;99.90;;;;;;5013351;28;20175;-89
2023/05/08 05:19:20;;;;;;;6.07;4.70;;;8.50;99.90;;;;;;5013116;28;20245;-90
2023/05/08 05:21:46;;;;;;;6.23;5.27;;;8.60;99.90;;;;;;5013512;28;20179;-89
2023/05/08 05:24:12;;;;;;;7.60;5.00;;;8.60;99.90;;;;;;5011761;28;20187;-86
2023/05/08 05:26:37;;;;;;;8.77;5.30;;;8.80;99.90;;;;;;5012838;28;20191;-85
2023/05/08 05:29:04;;;;;;;6.03;5.30;;;8.80;99.90;;;;;;5012874;28;20195;-89
2023/05/08 05:31:29;;;;;;;5.93;4.90;;;9.00;99.90;;;;;;5012213;28;20327;-87
2023/05/08 05:34:02;;;;;;;7.50;5.07;;;9.10;99.90;;;;;;5013665;28;20270;-89
2023/05/08 05:36:28;;;;;;;5.83;4.90;;;9.20;99.90;;;;;;5019330;28;20618;-89
2023/05/08 05:38:54;;;;;;;5.77;4.90;;;9.20;99.90;;;;;;4993933;28;20230;-87
2023/05/08 05:41:27;;;;;;;5.85;5.25;;;9.30;99.90;;;;;;5007447;28;20205;-89
2023/05/08 05:43:56;;;;;;;5.40;4.60;;;9.40;99.90;;;;;;5022384;28;20630;-86
2023/05/08 05:46:26;;;;;;;6.00;5.25;;;9.40;99.90;;;;;;5016234;28;20297;-87
2023/05/08 05:48:52;;;;;;;5.30;4.80;;;9.50;99.90;;;;;;5015872;28;20194;-86
2023/05/08 05:56:43;;;;;;;7.03;4.95;;;9.50;99.90;;;;;;5377120;22;20514;-95
2023/05/08 06:04:21;;;;;;;6.30;5.10;;;9.50;99.90;;;;;;4755767;22;20256;-84
2023/05/08 06:06:47;;;;;;;8.47;5.30;;;9.60;99.90;;;;;;5032226;28;20226;-84
2023/05/08 06:09:12;;;;;;;7.00;5.50;;;9.60;99.90;;;;;;5022064;28;20259;-87
2023/05/08 06:11:41;;;;;;;6.47;4.97;;;9.70;99.90;;;;;;5041328;28;20230;-84
2023/05/08 06:14:07;;;;;;;6.35;5.22;;;9.80;99.90;;;;;;5032114;28;20249;-84
2023/05/08 06:16:34;;;;;;;6.03;4.97;;;9.90;99.90;;;;;;5031187;28;20210;-86
2023/05/08 06:19:01;;;;;;;7.40;4.95;;;9.90;99.90;;;;;;5035150;28;20178;-85
2023/05/08 06:21:27;;;;;;;6.93;5.30;;;10.10;99.90;;;;;;5052342;28;20225;-84
2023/05/08 06:23:53;;;;;;;7.05;5.07;;;10.10;99.90;;;;;;5036214;28;20211;-85
2023/05/08 06:26:21;;;;;;;6.15;5.35;;;10.20;99.90;;;;;;5032231;28;20278;-86
2023/05/08 06:28:47;;;;;;;6.38;5.15;;;10.40;99.90;;;;;;5031760;28;20588;-86
2023/05/08 06:31:13;;;;;;;6.07;4.93;;;10.50;99.90;;;;;;5015897;28;20214;-85
2023/05/08 06:33:38;;;;;;;6.57;4.97;;;10.60;99.90;;;;;;5016958;28;20215;-85
2023/05/08 06:36:05;;;;;;;5.80;5.07;;;10.60;99.90;;;;;;5015388;28;20225;-85
2023/05/08 06:38:31;;;;;;;6.60;4.88;;;10.60;99.90;;;;;;5015743;28;20290;-85
2023/05/08 06:40:57;;;;;;;7.35;5.10;;;10.70;99.90;;;;;;5015565;28;20669;-83
2023/05/08 06:43:22;;;;;;;6.63;5.45;;;10.70;99.90;;;;;;5021750;28;20225;-87
2023/05/08 06:45:48;;;;;;;6.32;5.40;;;10.80;99.90;;;;;;5051839;28;20202;-87
2023/05/08 06:48:14;;;;;;;7.95;5.30;;;10.90;99.90;;;;;;5041172;28;20277;-86
2023/05/08 06:50:40;;;;;;;5.72;5.18;;;11.00;99.90;;;;;;5032010;28;20191;-86
2023/05/08 06:53:07;;;;;;;6.15;5.13;;;11.10;99.90;;;;;;5030084;28;20527;-85
2023/05/08 06:55:33;;;;;;;6.43;5.38;;;11.20;99.90;;;;;;5023804;28;20182;-85
2023/05/08 06:57:58;;;;;;;6.60;5.35;;;11.30;99.90;;;;;;5039778;28;20630;-86
2023/05/08 07:00:24;;;;;;;8.48;5.90;;;11.30;99.90;;;;;;5046992;28;20175;-85
2023/05/08 07:02:51;;;;;;;8.23;5.72;;;11.40;99.90;;;;;;5032358;28;20520;-85
2023/05/08 07:05:17;;;;;;;6.90;5.68;;;11.50;99.90;;;;;;5028642;28;20222;-87
2023/05/08 07:07:42;;;;;;;7.25;5.43;;;11.60;99.90;;;;;;5037997;28;20187;-87
2023/05/08 07:10:08;;;;;;;6.82;5.68;;;11.60;99.90;;;;;;5031827;28;20633;-87
2023/05/08 07:12:34;;;;;;;6.90;5.65;;;11.80;99.90;;;;;;5046863;28;20174;-85
2023/05/08 07:15:00;;;;;;;5.95;5.35;;;11.90;99.90;;;;;;5015168;28;20194;-87
2023/05/08 07:17:25;;;;;;;6.03;5.22;;;11.90;99.90;;;;;;5034229;28;20185;-87
2023/05/08 07:19:51;;;;;;;6.00;5.40;;;12.10;99.90;;;;;;5041730;28;20249;-84
2023/05/08 07:22:17;;;;;;;5.22;4.72;;;12.20;99.90;;;;;;5050993;28;20213;-86
2023/05/08 07:24:43;;;;;;;5.82;5.20;;;12.30;99.90;;;;;;5032355;28;20271;-87
2023/05/08 07:27:08;;;;;;;8.15;4.97;;;12.50;99.90;;;;;;5012444;28;20179;-85
2023/05/08 07:29:34;;;;;;;5.40;4.90;;;12.60;99.90;;;;;;5015348;28;20187;-87
2023/05/08 07:32:01;;;;;;;6.07;5.00;;;12.60;99.90;;;;;;5013905;28;20206;-87
2023/05/08 07:34:27;;;;;;;10.80;5.18;;;12.70;99.90;;;;;;5013510;28;20648;-86
2023/05/08 07:36:53;;;;;;;5.85;5.22;;;12.80;99.90;;;;;;5030963;28;20187;-85
2023/05/08 07:39:19;;;;;;;6.85;5.00;;;12.90;99.90;;;;;;5030150;28;20198;-84
2023/05/08 07:41:48;;;;;;;7.88;5.18;;;12.90;99.90;;;;;;5028683;28;20187;-88
2023/05/08 07:44:13;;;;;;;6.35;4.82;;;12.80;99.90;;;;;;5030964;28;20179;-85
2023/05/08 07:46:39;;;;;;;5.20;4.70;;;12.80;99.90;;;;;;5030881;28;20193;-83
2023/05/08 07:49:05;;;;;;;5.65;5.05;;;12.90;99.90;;;;;;5026573;28;20187;-85
2023/05/08 07:51:31;;;;;;;5.72;4.80;;;12.90;99.90;;;;;;5023064;28;20191;-89
2023/05/08 07:53:57;;;;;;;5.70;5.10;;;12.90;99.90;;;;;;5018853;28;20191;-89
2023/05/08 07:56:24;;;;;;;4.97;4.38;;;12.90;99.90;;;;;;5014306;28;20278;-88
2023/05/08 07:58:49;;;;;;;6.90;4.50;;;13.10;99.90;;;;;;5016000;28;20178;-85
2023/05/08 08:01:16;;;;;;;7.18;4.57;;;13.10;99.90;;;;;;5043330;28;20187;-86
2023/05/08 08:03:43;;;;;;;4.88;4.32;;;13.20;99.90;;;;;;5011886;28;20239;-85
2023/05/08 08:06:11;;;;;;;5.28;4.38;;;13.30;99.90;;;;;;5022445;28;20187;-87
2023/05/08 08:08:38;;;;;;;5.43;4.25;;;13.50;99.90;;;;;;5039220;28;20178;-87
2023/05/08 08:11:04;;;;;;;5.15;4.65;;;13.70;99.90;;;;;;5009153;28;20189;-85
2023/05/08 08:13:31;;;;;;;5.97;4.03;;;13.70;99.90;;;;;;5029984;28;20210;-85
2023/05/08 08:15:59;;;;;;;5.38;4.50;;;13.90;99.90;;;;;;5041905;28;20205;-86
2023/05/08 08:18:24;;;;;;;4.55;4.15;;;13.90;99.90;;;;;;5035578;28;20191;-87
2023/05/08 08:20:51;;;;;;;4.68;4.25;;;13.90;99.90;;;;;;5016258;28;20597;-86
2023/05/08 08:23:16;;;;;;;6.05;4.10;;;13.90;99.90;;;;;;5020674;28;20207;-87
2023/05/08 08:25:42;;;;;;;5.03;4.35;;;13.70;99.90;;;;;;5014186;28;20606;-85
2023/05/08 08:28:09;;;;;;;7.18;4.45;;;13.60;99.90;;;;;;5015160;28;20691;-86
2023/05/08 08:30:34;;;;;;;4.63;4.10;;;13.70;99.90;;;;;;5013736;28;20187;-86
2023/05/08 08:33:01;;;;;;;6.38;4.95;;;13.80;99.90;;;;;;5012008;28;20213;-87
2023/05/08 08:35:32;;;;;;;4.75;3.75;;;14.00;99.90;;;;;;5022065;28;20255;-84
2023/05/08 08:37:58;;;;;;;5.72;4.70;;;14.20;99.90;;;;;;4994274;28;20175;-87
2023/05/08 08:40:24;;;;;;;5.03;4.25;;;14.40;99.90;;;;;;5016161;28;20182;-84
2023/05/08 08:42:49;;;;;;;5.90;4.10;;;14.50;99.90;;;;;;5031721;28;20228;-85
2023/05/08 08:45:15;;;;;;;4.15;3.75;;;14.70;99.90;;;;;;5028120;28;20183;-86
2023/05/08 08:47:44;;;;;;;5.13;4.38;;;14.90;99.90;;;;;;5013444;28;20324;-89
2023/05/08 08:50:12;;;;;;;5.03;4.28;;;15.00;99.90;;;;;;5016592;28;20622;-85
2023/05/08 08:53:26;;;;;;;5.75;4.07;;;15.00;99.90;;;;;;5009968;28;20614;-84
2023/05/08 08:55:55;;;;;;;4.57;4.18;;;15.00;99.90;;;;;;4934600;29;20186;-85
2023/05/08 08:58:37;;;;;;;4.18;3.78;;;15.00;99.90;;;;;;4935300;29;20272;-87
2023/05/08 09:01:06;;;;;;;4.60;3.83;;;15.10;99.90;;;;;;4991370;28;20269;-84
2023/05/08 09:03:32;;;;;;;4.82;4.10;;;15.00;99.90;;;;;;5044124;28;20239;-84
2023/05/08 09:06:02;;;;;;;4.15;3.75;;;15.10;99.90;;;;;;5031072;28;20186;-88
2023/05/08 09:08:28;;;;;;;6.65;4.20;;;15.10;99.90;;;;;;5036155;28;20190;-85
2023/05/08 09:10:57;;;;;;;6.63;3.80;;;15.20;99.90;;;;;;5029411;28;20569;-87
2023/05/08 09:13:22;;;;;;;4.13;3.72;;;15.40;99.90;;;;;;5035726;28;20934;-85
2023/05/08 09:15:49;;;;;;;4.72;4.15;;;15.30;99.60;;;;;;5021818;28;20187;-86
2023/05/08 09:18:16;;;;;;;5.68;4.30;;;15.20;99.50;;;;;;5009452;28;20599;-86
2023/05/08 09:20:43;;;;;;;4.13;3.72;;;15.30;99.70;;;;;;5030722;28;20191;-84
2023/05/08 09:23:10;;;;;;;9.32;4.03;;;15.40;98.80;;;;;;5017202;28;20559;-85
2023/05/08 09:25:46;;;;;;;7.47;4.70;;;15.40;99.30;;;;;;5033431;28;20189;-85
2023/05/08 09:28:21;;;;;;;6.78;3.55;;;15.50;98.50;;;;;;5029471;28;20228;-85
2023/05/08 09:30:57;;;;;;;4.38;3.90;;;15.40;98.30;;;;;;5030582;28;20621;-86
2023/05/08 09:33:26;;;;;;;6.10;3.70;;;15.30;98.50;;;;;;5012064;28;20183;-85
2023/05/08 09:35:52;;;;;;;5.30;3.50;;;15.40;98.60;;;;;;5023546;28;20220;-87
2023/05/08 09:38:35;;;;;;;4.25;3.63;;;15.50;98.50;;;;;;5046447;28;20174;-85
2023/05/08 09:41:14;;;;;;;5.75;4.07;;;15.60;99.20;;;;;;5033494;28;20636;-87
2023/05/08 09:43:41;;;;;;;9.07;4.05;;;15.60;98.20;;;;;;5011499;28;20313;-87
2023/05/08 09:46:24;;;;;;;5.05;3.75;;;15.80;99.40;;;;;;5012054;28;20179;-87
2023/05/08 09:48:55;;;;;;;4.47;3.85;;;16.00;98.00;;;;;;5029918;28;20238;-86
2023/05/08 09:51:21;;;;;;;4.18;3.78;;;16.00;97.70;;;;;;5029086;28;20187;-86
2023/05/08 09:53:52;;;;;;;4.30;3.63;;;16.10;98.00;;;;;;5013729;28;20167;-87
2023/05/08 09:56:35;;;;;;;5.50;4.05;;;16.10;98.60;;;;;;5012954;28;20225;-88
2023/05/08 09:59:03;;;;;;;4.45;4.05;;;16.40;98.30;;;;;;5012384;28;20191;-86
2023/05/08 10:01:38;;;;;;;7.40;4.30;;;16.30;98.40;;;;;;5012479;28;20171;-88
2023/05/08 10:04:04;;;;;;;4.95;4.30;;;16.20;98.10;;;;;;5014208;28;20226;-88
2023/05/08 10:06:30;;;;;;;5.60;4.47;;;16.30;98.90;;;;;;5029722;28;20179;-88
2023/05/08 10:09:15;;;;;;;4.60;4.18;;;16.30;98.00;;;;;;5029061;28;20191;-85
2023/05/08 10:11:51;;;;;;;8.55;4.30;;;16.30;98.00;;;;;;5029890;28;20171;-86
2023/05/08 10:14:18;;;;;;;5.05;4.30;;;16.40;99.10;;;;;;5015794;28;20183;-86
2023/05/08 10:16:47;;;;;;;4.50;4.05;;;16.50;98.30;;;;;;5010838;28;20501;-82
2023/05/08 10:19:16;;;;;;;5.57;4.45;;;16.40;97.80;;;;;;5012708;28;20207;-84
2023/05/08 10:21:51;;;;;;;6.05;4.50;;;16.40;97.70;;;;;;5032405;28;20187;-87
2023/05/08 10:24:19;;;;;;;6.47;4.63;;;16.50;98.20;;;;;;5008895;28;20191;-88
2023/05/08 10:26:56;;;;;;;5.20;4.10;;;16.50;97.90;;;;;;5015754;28;20222;-87
2023/05/08 10:29:31;;;;;;;5.28;4.35;;;16.60;98.10;;;;;;5016787;28;20171;-86
2023/05/08 10:31:59;;;;;;;4.78;4.10;;;16.70;98.50;;;;;;5045637;28;20181;-85
2023/05/08 10:34:27;;;;;;;4.80;4.30;;;16.70;97.70;;;;;;5046714;28;20186;-85
2023/05/08 10:36:53;;;;;;;5.78;4.20;;;16.80;96.90;;;;;;5041354;28;20179;-85
2023/05/08 10:39:20;;;;;;;5.10;3.78;;;17.00;97.60;;;;;;5046051;28;20178;-84
2023/05/08 10:41:48;;;;;;;5.22;4.20;;;17.10;97.00;;;;;;5034987;28;20553;-86
2023/05/08 10:44:14;;;;;;;7.60;3.92;;;17.20;96.90;;;;;;5046103;28;20521;-87
2023/05/08 10:46:52;;;;;;;4.90;3.65;;;17.20;96.70;;;;;;5035444;28;20243;-84
2023/05/08 10:49:25;;;;;;;6.45;4.15;;;17.30;97.10;;;;;;5015141;28;20207;-85
2023/05/08 10:52:15;;;;;;;3.45;3.05;;;17.40;97.20;;;;;;5022519;28;20646;-89
2023/05/08 10:54:57;;;;;;;4.00;3.55;;;17.50;97.10;;;;;;5019607;28;20191;-87
2023/05/08 10:57:30;;;;;;;3.92;2.95;;;17.60;96.10;;;;;;5031053;28;20182;-86
2023/05/08 11:00:01;;;;;;;8.05;3.05;;;17.50;95.40;;;;;;5034408;28;20205;-84
2023/05/08 11:02:29;;;;;;;5.80;3.25;;;17.40;95.50;;;;;;5014882;28;20221;-85
2023/05/08 11:05:12;;;;;;;3.45;3.13;;;17.40;96.30;;;;;;5041875;28;20226;-85
2023/05/08 11:07:58;;;;;;;3.20;2.90;;;17.30;96.20;;;;;;5019673;28;20180;-85
2023/05/08 11:10:35;;;;;;;8.15;3.40;;;17.40;96.30;;;;;;5042398;28;20207;-90
2023/05/08 11:13:03;;;;;;;4.30;2.97;;;17.50;95.90;;;;;;5011304;28;20183;-86
2023/05/08 11:15:36;;;;;;;4.72;3.13;;;17.60;97.00;;;;;;5014457;28;20191;-87
2023/05/08 11:18:08;;;;;;;4.10;3.13;;;17.70;96.10;;;;;;5016165;28;20174;-87
2023/05/08 11:20:41;;;;;;;3.75;3.05;;;17.70;95.30;;;;;;5017733;28;20185;-85
2023/05/08 11:23:24;;;;;;;3.50;3.20;;;17.70;95.00;;;;;;5038566;28;20265;-84
2023/05/08 11:26:04;;;;;;;5.57;3.63;;;17.70;95.50;;;;;;5031582;28;20535;-85
2023/05/08 11:28:36;;;;;;;4.15;3.22;;;17.50;95.60;;;;;;5030695;28;20633;-85
2023/05/08 11:31:04;;;;;;;3.92;3.28;;;17.70;96.30;;;;;;5014718;28;20601;-88
2023/05/08 11:33:36;;;;;;;4.40;3.20;;;17.80;94.80;;;;;;5016691;28;20179;-86
2023/05/08 11:36:21;;;;;;;6.93;3.20;;;17.80;94.60;;;;;;5035049;28;20612;-86
2023/05/08 11:39:06;;;;;;;4.53;3.78;;;17.90;94.50;;;;;;5033041;28;20183;-86
2023/05/08 11:41:34;;;;;;;4.47;3.35;;;17.90;95.00;;;;;;5014422;28;20236;-86
2023/05/08 11:44:03;;;;;;;4.72;3.40;;;18.00;95.40;;;;;;4996003;28;20200;-85
2023/05/08 11:46:49;;;;;;;4.15;3.50;;;18.20;95.10;;;;;;5008948;28;20172;-86
2023/05/08 11:49:16;;;;;;;4.32;3.60;;;18.20;94.50;;;;;;5050407;28;20313;-86
2023/05/08 11:51:48;;;;;;;4.30;3.30;;;18.20;94.80;;;;;;5044700;28;20218;-85
2023/05/08 11:54:18;;;;;;;3.53;3.22;;;18.30;95.10;;;;;;5035274;28;20601;-87
2023/05/08 11:56:53;;;;;;;3.55;3.25;;;18.40;94.70;;;;;;5041348;28;20217;-84
2023/05/08 11:59:20;;;;;;;3.15;2.80;;;18.60;94.90;;;;;;5045108;28;20265;-85
2023/05/08 12:01:48;;;;;;;5.95;3.08;;;18.60;94.10;;;;;;5046996;28;20533;-86
2023/05/08 12:04:14;;;;;;;2.97;2.50;;;18.90;94.80;;;;;;5050398;28;20235;-87
2023/05/08 12:06:40;;;;;;;4.78;2.88;;;19.00;94.30;;;;;;5034697;28;20658;-90
2023/05/08 12:09:15;;;;;;;7.28;2.90;;;19.00;93.10;;;;;;5050470;28;20624;-85
2023/05/08 12:11:42;;;;;;;4.20;2.42;;;18.80;93.00;;;;;;5035958;28;20331;-86
2023/05/08 12:14:09;;;;;;;4.15;2.47;;;18.80;92.30;;;;;;5013560;28;20175;-85
2023/05/08 12:16:39;;;;;;;4.10;2.40;;;18.90;92.20;;;;;;5013649;28;20622;-85
2023/05/08 12:19:13;;;;;;;5.10;2.38;;;18.90;91.80;;;;;;5013654;28;20192;-85
2023/05/08 12:21:48;;;;;;;6.78;3.25;;;18.80;92.60;;;;;;5033207;28;20186;-86
2023/05/08 12:24:21;;;;;;;6.43;2.80;;;18.90;93.90;;;;;;5011192;28;20221;-86
2023/05/08 12:26:47;;;;;;;3.38;2.50;;;19.00;92.20;;;;;;5039903;28;20274;-87
2023/05/08 12:29:12;;;;;;;2.78;2.50;;;19.10;91.30;;;;;;5027370;28;20309;-87
2023/05/08 12:31:40;;;;;;;3.83;2.60;;;19.00;91.50;;;;;;5041715;28;20192;-85
2023/05/08 12:34:08;;;;;;;3.05;2.45;;;18.90;92.10;;;;;;5044356;28;20249;-89
2023/05/08 12:36:35;;;;;;;3.00;2.45;;;19.20;92.60;;;;;;5013888;28;20704;-88
2023/05/08 12:39:15;;;;;;;2.90;2.60;;;19.30;92.10;;;;;;5042210;28;20252;-87
2023/05/08 12:41:50;;;;;;;3.45;2.40;;;19.30;91.80;;;;;;5033734;28;20178;-88
2023/05/08 12:44:17;;;;;;;4.53;2.25;;;19.30;90.50;;;;;;4999655;28;20200;-89
2023/05/08 12:46:51;;;;;;;2.97;2.33;;;19.20;90.70;;;;;;5030259;28;20567;-88
2023/05/08 12:49:28;;;;;;;3.63;2.42;;;18.90;91.70;;;;;;5020096;28;20237;-85
2023/05/08 12:52:06;;;;;;;4.25;2.80;;;18.50;91.70;;;;;;5031843;28;20270;-87
2023/05/08 12:54:37;;;;;;;3.47;2.83;;;18.00;91.80;;;;;;5000032;28;20647;-90
2023/05/08 12:57:14;;;;;;;6.82;3.10;;;17.90;92.90;;;;;;5029673;28;20180;-90
2023/05/08 12:59:42;;;;;;;3.20;2.72;;;18.10;92.80;;;;;;5018819;28;20530;-85
2023/05/08 13:02:26;;;;;;;4.05;2.63;;;18.50;93.50;;;;;;5010657;28;20529;-85
2023/05/08 13:04:55;;;;;;;2.92;2.45;;;18.80;92.80;;;;;;5038769;28;20218;-86
2023/05/08 13:07:21;;;;;;;4.07;2.40;;;19.10;91.20;;;;;;5035368;28;20214;-87
2023/05/08 13:10:03;;;;;;;4.60;2.78;;;19.30;91.90;;;;;;5014250;28;20206;-88
2023/05/08 13:12:29;;;;;;;7.05;2.58;;;19.30;91.10;;;;;;5023219;28;20195;-85
2023/05/08 13:14:55;;;;;;;2.17;1.98;;;19.30;90.70;;;;;;5040077;28;20629;-85
2023/05/08 13:17:21;;;;;;;5.07;3.20;;;19.40;90.90;;;;;;5037064;28;20233;-87